Winslow, Illinois
Current Conditions -  °F | °C
As of 11:55 AM on Sunday 21 Dec 2014 (Local Time) from KEFT Reporting Station
Haze Haze  
Wind Chill: 24°   Ceiling: 400
Heat Index: 34°   Visibility: 4mi
Dew Point: 32°   Wind: 15mph
Humidity: 93%   Direction: 170°S
Pressure: 30.04"   Gusts: 20mph
Location:  42.49°N, 89.79°W
Report Text: KEFT 211755Z AUTO 17013G17KT 4SM BR OVC004 01/00 A3004 RMK AO2
Loading
Personal Weather Stations






























Interactive Weather Map New forecast layout! Learn more

10-Day Weather Forecast

Advertisements
Track Severe Weather on mobile